Aviation Digital Data Service (ADDS)

Output produced by METARs form (1210 UTC 15 November 2018)
found at http://www.aviationweather.gov/metar/data/
 
KTCC 151120Z 1512/1612 26008KT P6SM SKC 
     FM160100 05007KT P6SM FEW250
       
KTCL 151138Z 1512/1612 30007KT P6SM OVC015 
     FM151600 31009KT P6SM BKN025 
     FM151900 30010KT P6SM SCT025 BKN050 
     FM160000 00000KT P6SM SKC
       
TAF KTCM 150500Z 1505/1611 16009KT 9999 FEW150 QNH3036INS 
     BECMG 1506/1507 16009KT 9999 BKN020 QNH3034INS 
     BECMG 1514/1515 24009KT 9999 SCT020 BKN080 QNH3021INS 
     BECMG 1601/1602 16009KT 9999 BKN015 QNH3014INS TX12/1522Z TN05/1514Z
       
KTCS 151136Z 1512/1612 32007KT P6SM SKC 
     FM151600 15006KT P6SM SKC 
     FM160300 31006KT P6SM SKC
       
KTEB 151124Z 1512/1618 06007KT P6SM OVC200 
     FM151400 07007KT P6SM OVC120 
     FM151800 08007KT 1SM -SN BKN030 OVC080 
     FM151900 08010KT 2SM -SNPL OVC010 
     TEMPO 1519/1521 1SM -SN 
     FM152300 06010G21KT 2SM -RAPL BR OVC009 
     FM160200 06013G26KT 4SM -RA BR OVC009 WS020/09050KT 
     FM160900 03012G25KT 4SM -RA BR OVC010 
     FM161200 32016G26KT P6SM VCSH BKN015 BKN030 
     FM161500 30016G24KT P6SM SCT040
       
KTEX 151124Z 1512/1612 12005KT P6SM SKC 
     FM151900 29005KT P6SM SKC 
     FM160200 13005KT P6SM SKC
       
TAF KTIK 151000Z 1510/1616 VRB06KT 9999 SKC QNH3005INS 
     BECMG 1520/1521 21010G15KT 9999 SKC QNH3001INS 
     BECMG 1603/1604 VRB06KT 9999 SKC QNH3008INS TX16/1521Z TNM03/1510Z
       
KTIX 151147Z 1512/1612 28014KT P6SM VCSH FEW020 BKN150 
     TEMPO 1512/1513 4SM SHRA BKN010 
     FM151400 24008KT P6SM BKN015 BKN025 OVC040 
     FM151600 30010KT P6SM SCT030 SCT060 SCT120 
     FM160000 29006KT P6SM SCT150 AMD NOT SKED TIL 151200
       
KTLH 151120Z 1512/1612 32010KT P6SM OVC005 
     FM151400 30010G15KT P6SM BKN015 
     FM151800 30010G15KT P6SM SKC 
     FM152200 32004KT P6SM SKC
       
KTMB 151138Z 1512/1612 VRB03KT P6SM SCT040 
     TEMPO 1512/1513 -SHRA SCT015 BKN025 
     FM151400 22006KT P6SM VCSH SCT025 SCT050 
     FM152000 31008KT P6SM VCSH SCT035 BKN060 
     FM160100 34008KT P6SM SCT025 BKN150
       
KTOI 151138Z 1512/1612 30010KT P6SM -RA OVC008 
     TEMPO 1512/1515 OVC004 
     FM151600 30010KT P6SM OVC012 
     FM151900 31012KT P6SM SCT020 
     FM160000 32003KT P6SM SKC
       
KTOL 151143Z 1512/1612 08005KT 6SM -RASN OVC035 
     FM151400 09007KT 3SM -RASN OVC015 
     FM151900 09007KT 2SM -SN OVC008 
     FM152300 25006KT P6SM OVC008
       
KTOP 151121Z 1512/1612 20007KT P6SM SKC 
     FM160200 26005KT P6SM SKC
       
KTPA 151120Z 1512/1618 36010KT P6SM SCT025 BKN080 
     TEMPO 1512/1516 BKN025 
     FM151600 32013G20KT P6SM BKN025 
     FM152100 32011G17KT P6SM SCT025 BKN100 
     FM160100 34008KT P6SM SCT130 
     FM160800 36009KT P6SM SKC
       
KTPH 151124Z 1512/1612 36010KT P6SM SCT250 
     FM151700 VRB05KT P6SM SCT200
       
KTRI 151141Z 1512/1612 11008KT 5SM -RA BR SCT015 OVC080 
     FM151500 VRB05KT 3SM -DZ BR OVC015 
     FM152000 25008KT P6SM OVC015 
     FM160000 29012G20KT P6SM OVC010
       
KTRK 151129Z 1512/1612 00000KT P6SM SCT200 
     FM152200 28006KT P6SM SCT180 
     FM160200 00000KT P6SM FEW180
       
KTRM 151126Z 1512/1612 33007KT P6SM SKC 
     FM151900 14006KT P6SM SCT250 
     FM160300 33006KT P6SM BKN250
       
KTTD 151140Z 1512/1612 00000KT 2SM BR OVC004 
     FM151900 VRB03KT P6SM BKN015 OVC025 
     FM152200 VRB04KT P6SM SCT025 
     FM160400 VRB03KT 2SM BR BKN007 BKN012
       
KTTN 151126Z 1512/1612 06006KT P6SM BKN100 
     FM151400 08008KT P6SM OVC040 
     TEMPO 1516/1517 -SNPL OVC025 
     FM151700 08010KT 3SM -SNPL OVC015 
     FM151900 09012G20KT 1/2SM SNPL OVC004 
     FM152200 08014G24KT 1SM RA BR OVC004 
     FM160100 08018G28KT 4SM -RA BR OVC006 
     FM160700 03014G24KT 6SM -SHRA BR OVC006 
     FM160900 33014G24KT P6SM -SHRA BKN006 OVC025
       
KTUL 151120Z 1512/1612 20004KT P6SM SKC 
     FM151500 19011KT P6SM SKC
       
KTUP 151135Z 1512/1612 24006KT P6SM OVC015 
     FM151800 26008KT P6SM SCT025 
     FM160000 21003KT P6SM SKC
       
KTUS 151120Z 1512/1612 12010KT P6SM SKC 
     FM152200 04005KT P6SM SKC 
     FM160300 14006KT P6SM SKC
       
KTVC 151120Z 1512/1612 17008KT P6SM FEW150 
     FM152200 17007KT P6SM BKN025 
     FM160200 19008KT P6SM BKN015 
     FM160900 21008KT P6SM BKN020 
     FM161100 24008KT P6SM OVC015
       
KTVL 151129Z 1512/1612 18003KT P6SM SCT200 
     FM152000 05006KT P6SM SCT180 
     FM160200 VRB03KT P6SM FEW180
       
KTWF 151120Z 1512/1612 20009KT P6SM SKC 
     FM151800 VRB05KT P6SM SCT200 
     FM160100 19008KT P6SM BKN150
       
KTXK 151120Z 1512/1612 23004KT P6SM SKC 
     FM151600 25007KT P6SM SKC 
     FM152100 24008KT P6SM SCT250 
     FM160000 20004KT P6SM BKN250
       
KTYR 151120Z 1512/1612 22005KT P6SM SKC 
     FM151600 23008KT P6SM SKC 
     FM152100 22008KT P6SM SCT250 
     FM160000 20006KT P6SM BKN250
       
KTYS 151141Z 1512/1612 26005KT 3SM -RA BR OVC006 
     FM151600 28006KT P6SM OVC015 
     FM160100 29010KT P6SM OVC025 
     FM161000 21005KT P6SM SCT025